createdAt,value
2022-08-01T00:02:14.970Z,1.20
2022-08-01T00:07:17.060Z,1.20
2022-08-01T00:12:19.102Z,1.17
2022-08-01T00:17:21.023Z,1.38
2022-08-01T00:22:22.900Z,1.15
2022-08-01T00:27:24.874Z,1.63
2022-08-01T00:32:26.786Z,1.25
2022-08-01T00:37:28.896Z,1.00
2022-08-01T00:42:30.799Z,1.20
2022-08-01T00:47:32.766Z,1.48
2022-08-01T00:52:35.859Z,1.25
2022-08-01T00:58:02.343Z,1.40
2022-08-01T01:03:00.801Z,1.45
2022-08-01T01:08:12.797Z,1.52
2022-08-01T01:14:08.285Z,1.33
2022-08-01T01:19:15.506Z,1.45
2022-08-01T01:24:54.191Z,1.33
2022-08-01T01:30:01.149Z,1.58
2022-08-01T01:35:09.204Z,1.20
2022-08-01T01:40:13.429Z,1.23
2022-08-01T01:45:17.084Z,1.10
2022-08-01T01:50:22.064Z,1.20
2022-08-01T01:55:27.102Z,1.35
2022-08-01T02:00:30.384Z,1.00
2022-08-01T02:05:35.538Z,1.40
2022-08-01T02:10:40.114Z,1.33
2022-08-01T02:16:00.123Z,1.30
2022-08-01T02:21:06.370Z,1.48
2022-08-01T02:26:14.674Z,1.42
2022-08-01T02:31:21.653Z,1.40
2022-08-01T02:36:31.611Z,1.15
2022-08-01T02:41:41.099Z,1.40
2022-08-01T02:46:51.511Z,1.23
2022-08-01T02:51:56.709Z,1.10
2022-08-01T02:56:59.892Z,1.20
2022-08-01T03:02:05.508Z,1.30
2022-08-01T03:07:10.437Z,1.60
2022-08-01T03:12:26.222Z,1.42
2022-08-01T03:17:29.913Z,1.42
2022-08-01T03:22:34.544Z,1.42
2022-08-01T03:27:58.140Z,1.70
2022-08-01T03:33:01.127Z,1.35
2022-08-01T03:38:16.208Z,1.67
2022-08-01T03:43:28.526Z,1.73
2022-08-01T03:48:33.249Z,1.30
2022-08-01T03:53:37.930Z,1.35
2022-08-01T03:58:44.838Z,1.27
2022-08-01T04:03:53.051Z,1.60
2022-08-01T04:08:58.302Z,1.55
2022-08-01T04:14:00.303Z,1.77
2022-08-01T04:19:02.645Z,1.77
2022-08-01T04:24:15.033Z,1.83
2022-08-01T04:29:18.789Z,1.40
2022-08-01T04:34:24.049Z,1.38
2022-08-01T04:39:29.599Z,1.65
2022-08-01T04:44:33.794Z,1.55
2022-08-01T04:49:48.988Z,1.33
2022-08-01T04:54:51.936Z,1.90
2022-08-01T04:59:57.972Z,1.58
2022-08-01T05:04:59.870Z,1.67
2022-08-01T05:10:02.421Z,1.58
2022-08-01T05:15:13.168Z,1.50
2022-08-01T05:20:24.906Z,1.80
2022-08-01T05:25:54.894Z,1.60
2022-08-01T05:30:48.785Z,1.38
2022-08-01T05:35:50.701Z,1.25
2022-08-01T05:40:52.976Z,1.45
2022-08-01T05:45:54.872Z,1.17
2022-08-01T05:50:58.632Z,1.17
2022-08-01T05:56:03.120Z,1.42
2022-08-01T06:01:05.139Z,1.10
2022-08-01T06:06:07.590Z,1.30
2022-08-01T06:11:09.492Z,1.10
2022-08-01T06:16:15.422Z,1.50
2022-08-01T06:21:18.531Z,1.10
2022-08-01T06:26:21.784Z,1.23
2022-08-01T06:31:29.311Z,0.77
2022-08-01T06:36:33.766Z,1.58
2022-08-01T06:41:37.258Z,0.95
2022-08-01T06:46:40.828Z,1.40
2022-08-01T06:51:42.752Z,1.02
2022-08-01T06:56:44.701Z,1.08
2022-08-01T07:01:46.742Z,1.20
2022-08-01T07:06:48.636Z,1.40
2022-08-01T07:11:51.999Z,1.35
2022-08-01T07:16:53.922Z,1.08
2022-08-01T07:21:55.861Z,1.25
2022-08-01T07:26:59.982Z,1.45
2022-08-01T07:32:22.199Z,1.63
2022-08-01T07:37:45.519Z,1.45
2022-08-01T07:42:48.232Z,1.42
2022-08-01T07:47:53.196Z,1.67
2022-08-01T07:52:55.067Z,1.48
2022-08-01T07:57:57.260Z,1.52
2022-08-01T08:03:00.732Z,1.40
2022-08-01T08:08:07.126Z,1.05
2022-08-01T08:13:09.365Z,1.00
2022-08-01T08:18:11.502Z,0.90
2022-08-01T08:23:42.464Z,0.88
2022-08-01T08:28:47.646Z,0.70
2022-08-01T08:33:49.645Z,0.60
2022-08-01T08:38:51.653Z,0.70
2022-08-01T08:43:54.998Z,0.60
2022-08-01T08:48:57.678Z,0.50
2022-08-01T08:54:05.194Z,0.50
2022-08-01T08:59:07.562Z,0.63
2022-08-01T09:04:10.520Z,0.60
2022-08-01T09:09:12.504Z,0.73
2022-08-01T09:14:25.284Z,0.77
2022-08-01T09:19:39.652Z,0.70
2022-08-01T09:24:43.421Z,0.95
2022-08-01T09:29:46.130Z,0.90
2022-08-01T09:34:56.494Z,0.88
2022-08-01T09:39:59.347Z,1.10
2022-08-01T09:45:02.998Z,1.02
2022-08-01T09:50:11.361Z,0.68
2022-08-01T09:55:13.753Z,0.73
2022-08-01T10:00:42.767Z,0.80
2022-08-01T10:05:44.076Z,0.90
2022-08-01T10:11:13.066Z,0.57
2022-08-01T10:16:19.316Z,0.50
2022-08-01T10:21:56.388Z,0.52
2022-08-01T10:26:59.736Z,0.60
2022-08-01T10:32:02.293Z,0.50
2022-08-01T10:37:08.983Z,0.50
2022-08-01T10:42:15.628Z,0.70
2022-08-01T10:47:53.013Z,0.65
2022-08-01T10:53:23.933Z,0.70
2022-08-01T10:58:42.735Z,0.52
2022-08-01T11:04:06.511Z,0.40
2022-08-01T11:09:16.284Z,0.50
2022-08-01T11:14:26.108Z,0.35
2022-08-01T11:20:08.145Z,0.20
2022-08-01T11:25:10.627Z,0.20
2022-08-01T11:30:15.522Z,0.35
2022-08-01T11:35:24.760Z,0.20
2022-08-01T11:40:29.117Z,0.30
2022-08-01T11:45:52.671Z,0.50
2022-08-01T11:51:02.866Z,0.40
2022-08-01T11:56:04.979Z,0.50
2022-08-01T12:01:07.679Z,0.82
2022-08-01T12:06:11.185Z,0.70
2022-08-01T12:11:13.065Z,0.57
2022-08-01T12:16:16.208Z,0.50
2022-08-01T12:21:18.005Z,0.40
2022-08-01T12:31:36.229Z,0.30
2022-08-01T12:36:38.180Z,0.35
2022-08-01T12:41:40.203Z,0.60
2022-08-01T12:46:44.620Z,0.55
2022-08-01T12:51:57.266Z,0.30
2022-08-01T12:56:59.685Z,0.30
2022-08-01T13:02:10.192Z,0.30
2022-08-01T13:07:12.440Z,0.52
2022-08-01T13:12:14.665Z,0.22
2022-08-01T13:17:32.699Z,0.30
2022-08-01T13:22:38.922Z,0.22
2022-08-01T13:27:41.179Z,0.30
2022-08-01T13:33:00.427Z,0.20
2022-08-01T13:38:02.826Z,0.10
2022-08-01T13:43:05.040Z,0.22
2022-08-01T13:48:12.783Z,0.10
2022-08-01T13:53:21.571Z,0.10
2022-08-01T13:58:24.225Z,0.20
2022-08-01T14:03:26.571Z,0.17
2022-08-01T14:08:36.243Z,0.22
2022-08-01T14:13:40.114Z,0.47
2022-08-01T14:18:49.483Z,0.20
2022-08-01T14:23:51.464Z,0.30
2022-08-01T14:28:53.903Z,0.43
2022-08-01T14:33:55.822Z,0.30
2022-08-01T14:39:01.161Z,0.28
2022-08-01T14:44:03.657Z,0.40
2022-08-01T14:49:05.739Z,0.55
2022-08-01T14:54:07.931Z,0.93
2022-08-01T14:59:21.918Z,6.25
2022-08-01T15:04:24.320Z,2.25
2022-08-01T15:09:26.496Z,3.20
2022-08-01T15:14:47.415Z,2.63
2022-08-01T15:19:51.596Z,1.08
2022-08-01T15:24:57.566Z,0.65
2022-08-01T15:29:59.889Z,0.37
2022-08-01T15:35:02.250Z,0.32
2022-08-01T15:40:07.138Z,0.32
2022-08-01T15:45:20.653Z,0.40
2022-08-01T15:50:32.849Z,0.30
2022-08-01T15:55:38.844Z,0.30
2022-08-01T16:00:41.945Z,0.30
2022-08-01T16:05:46.619Z,0.43
2022-08-01T16:10:48.843Z,0.70
2022-08-01T16:15:50.826Z,0.50
2022-08-01T16:20:52.915Z,0.40
2022-08-01T16:25:55.111Z,0.40
2022-08-01T16:31:15.259Z,0.40
2022-08-01T16:36:19.590Z,0.28
2022-08-01T16:41:21.908Z,0.47
2022-08-01T16:46:28.283Z,0.43
2022-08-01T16:51:32.652Z,0.33
2022-08-01T16:56:35.668Z,0.65
2022-08-01T17:01:58.425Z,0.30
2022-08-01T17:07:00.205Z,0.40
2022-08-01T17:12:02.073Z,0.20
2022-08-01T17:17:04.315Z,0.30
2022-08-01T17:22:06.475Z,0.35
2022-08-01T17:27:12.695Z,0.40
2022-08-01T17:32:15.493Z,0.30
2022-08-01T17:37:17.652Z,0.63
2022-08-01T17:42:20.712Z,0.52
2022-08-01T17:47:49.349Z,0.28
2022-08-01T17:52:55.558Z,0.20
2022-08-01T17:57:57.516Z,0.38
2022-08-01T18:02:59.550Z,0.30
2022-08-01T18:08:27.310Z,0.50
2022-08-01T18:18:33.702Z,0.28
2022-08-01T18:23:37.005Z,0.35
2022-08-01T18:28:46.387Z,0.30
2022-08-01T18:33:49.478Z,0.40
2022-08-01T18:38:51.342Z,0.20
2022-08-01T18:44:05.511Z,0.10
2022-08-01T18:49:12.581Z,0.20
2022-08-01T18:54:15.332Z,0.25
2022-08-01T18:59:19.192Z,0.40
2022-08-01T19:04:21.171Z,0.35
2022-08-01T19:09:23.786Z,0.63
2022-08-01T19:14:25.810Z,0.32
2022-08-01T19:19:28.787Z,0.30
2022-08-01T19:24:32.731Z,0.20
2022-08-01T19:29:38.027Z,0.30
2022-08-01T19:34:54.307Z,0.25
2022-08-01T19:39:57.809Z,0.30
2022-08-01T19:45:02.385Z,0.30
2022-08-01T19:50:05.978Z,0.35
2022-08-01T19:55:09.022Z,0.30
2022-08-01T20:00:13.009Z,0.40
2022-08-01T20:05:36.301Z,0.50
2022-08-01T20:10:38.552Z,0.30
2022-08-01T20:15:43.143Z,0.40
2022-08-01T20:20:49.816Z,0.38
2022-08-01T20:25:58.716Z,0.33
2022-08-01T20:31:05.372Z,0.40
2022-08-01T20:36:12.185Z,0.43
2022-08-01T20:41:28.041Z,0.40
2022-08-01T20:46:30.550Z,0.70
2022-08-01T20:51:32.462Z,0.60
2022-08-01T20:57:05.200Z,0.43
2022-08-01T21:02:29.977Z,0.50
2022-08-01T21:07:40.749Z,0.28
2022-08-01T21:12:50.614Z,0.35
2022-08-01T21:17:58.292Z,0.30
2022-08-01T21:23:14.932Z,0.40
2022-08-01T21:28:19.284Z,0.40
2022-08-01T21:33:23.603Z,0.30
2022-08-01T21:38:27.798Z,0.55
2022-08-01T21:43:33.147Z,0.40
2022-08-01T21:48:39.496Z,0.28
2022-08-01T21:54:10.663Z,0.50
2022-08-01T21:59:29.504Z,0.60
2022-08-01T22:04:43.138Z,0.60
2022-08-01T22:09:49.001Z,0.40
2022-08-01T22:14:56.112Z,0.43
2022-08-01T22:19:58.860Z,0.50
2022-08-01T22:25:01.013Z,0.77
2022-08-01T22:30:06.667Z,0.40
2022-08-01T22:35:12.556Z,0.40
2022-08-01T22:40:15.842Z,0.30
2022-08-01T22:45:33.577Z,0.40
2022-08-01T22:55:57.796Z,0.50
2022-08-01T23:01:06.824Z,0.57
2022-08-01T23:06:13.769Z,0.40
2022-08-01T23:11:15.792Z,0.40
2022-08-01T23:16:19.104Z,0.30
2022-08-01T23:21:23.062Z,0.50
2022-08-01T23:26:28.802Z,0.50
2022-08-01T23:31:58.220Z,0.50
2022-08-01T23:36:53.958Z,0.40
2022-08-01T23:41:57.947Z,0.40
2022-08-01T23:47:01.112Z,0.52
2022-08-01T23:52:04.658Z,0.60
2022-08-01T23:57:06.596Z,0.55
